createdAt,value
2023-01-10T00:00:28.492Z,14.32
2023-01-10T00:02:56.581Z,14.31
2023-01-10T00:05:23.329Z,14.50
2023-01-10T00:07:49.973Z,14.44
2023-01-10T00:10:16.866Z,14.40
2023-01-10T00:12:43.454Z,14.56
2023-01-10T00:15:10.904Z,14.46
2023-01-10T00:17:37.534Z,14.39
2023-01-10T00:20:06.599Z,14.35
2023-01-10T00:22:33.207Z,14.28
2023-01-10T00:24:59.883Z,14.21
2023-01-10T00:27:26.471Z,14.24
2023-01-10T00:29:53.356Z,13.99
2023-01-10T00:32:20.715Z,14.13
2023-01-10T00:34:47.539Z,14.22
2023-01-10T00:37:15.602Z,14.00
2023-01-10T00:39:42.266Z,13.99
2023-01-10T00:42:10.035Z,13.94
2023-01-10T00:44:39.532Z,14.04
2023-01-10T00:47:06.753Z,14.07
2023-01-10T00:49:33.395Z,14.05
2023-01-10T00:52:00.116Z,13.99
2023-01-10T00:54:28.235Z,14.01
2023-01-10T00:56:54.943Z,13.97
2023-01-10T00:59:21.872Z,13.96
2023-01-10T01:01:48.752Z,13.89
2023-01-10T01:04:15.758Z,13.83
2023-01-10T01:06:43.990Z,13.75
2023-01-10T01:09:10.667Z,13.77
2023-01-10T01:11:38.755Z,13.53
2023-01-10T01:14:07.456Z,13.76
2023-01-10T01:16:34.139Z,13.74
2023-01-10T01:19:00.767Z,13.95
2023-01-10T01:21:27.392Z,13.97
2023-01-10T01:23:54.552Z,14.16
2023-01-10T01:26:21.163Z,14.30
2023-01-10T01:28:49.281Z,14.19
2023-01-10T01:31:16.075Z,14.13
2023-01-10T01:33:42.911Z,14.10
2023-01-10T01:36:11.085Z,14.15
2023-01-10T01:38:37.990Z,14.14
2023-01-10T01:41:07.853Z,14.10
2023-01-10T01:43:59.673Z,14.05
2023-01-10T01:46:26.757Z,13.77
2023-01-10T01:48:55.581Z,13.98
2023-01-10T01:51:26.922Z,13.91
2023-01-10T01:53:57.970Z,14.18
2023-01-10T01:56:29.780Z,14.13
2023-01-10T01:59:07.209Z,13.95
2023-01-10T02:01:36.034Z,14.07
2023-01-10T02:04:10.517Z,13.84
2023-01-10T02:06:38.035Z,14.24
2023-01-10T02:09:16.651Z,14.34
2023-01-10T02:11:43.309Z,14.36
2023-01-10T02:14:14.033Z,14.28
2023-01-10T02:16:40.809Z,14.28
2023-01-10T02:19:16.362Z,14.25
2023-01-10T02:22:09.174Z,14.27
2023-01-10T02:25:03.210Z,14.19
2023-01-10T02:27:41.178Z,14.30
2023-01-10T02:30:41.697Z,14.53
2023-01-10T02:33:19.184Z,14.62
2023-01-10T02:36:01.558Z,14.57
2023-01-10T02:38:36.537Z,14.67
2023-01-10T02:41:12.643Z,14.65
2023-01-10T02:43:45.495Z,14.80
2023-01-10T02:46:16.913Z,15.03
2023-01-10T02:48:45.058Z,15.04
2023-01-10T02:51:18.848Z,14.95
2023-01-10T02:53:49.309Z,15.09
2023-01-10T02:56:40.351Z,15.08
2023-01-10T02:59:32.975Z,15.12
2023-01-10T03:02:11.052Z,15.08
2023-01-10T03:04:51.407Z,15.02
2023-01-10T03:07:24.182Z,15.20
2023-01-10T03:09:56.155Z,15.13
2023-01-10T03:12:31.571Z,15.11
2023-01-10T03:15:00.696Z,15.07
2023-01-10T03:17:30.271Z,15.07
2023-01-10T03:20:02.423Z,15.18
2023-01-10T03:22:31.263Z,15.28
2023-01-10T03:25:01.034Z,15.30
2023-01-10T03:27:33.355Z,15.09
2023-01-10T03:30:06.498Z,15.31
2023-01-10T03:32:34.199Z,15.28
2023-01-10T03:35:03.437Z,15.30
2023-01-10T03:37:37.182Z,15.41
2023-01-10T03:40:09.387Z,15.41
2023-01-10T03:42:47.582Z,15.34
2023-01-10T03:45:15.695Z,15.39
2023-01-10T03:47:46.740Z,15.35
2023-01-10T03:50:19.904Z,15.35
2023-01-10T03:52:46.588Z,15.35
2023-01-10T03:55:15.678Z,15.34
2023-01-10T03:57:42.673Z,15.30
2023-01-10T04:00:10.627Z,15.31
2023-01-10T04:02:37.426Z,15.20
2023-01-10T04:05:08.012Z,15.02
2023-01-10T04:07:36.099Z,15.03
2023-01-10T04:10:02.982Z,15.02
2023-01-10T04:12:29.602Z,15.03
2023-01-10T04:14:56.326Z,15.01
2023-01-10T04:17:22.999Z,15.01
2023-01-10T04:19:50.225Z,15.08
2023-01-10T04:22:16.873Z,14.98
2023-01-10T04:24:44.937Z,15.03
2023-01-10T04:27:14.407Z,15.29
2023-01-10T04:29:41.094Z,15.25
2023-01-10T04:32:07.830Z,15.22
2023-01-10T04:34:34.535Z,15.27
2023-01-10T04:37:01.198Z,15.34
2023-01-10T04:39:27.894Z,15.31
2023-01-10T04:41:55.954Z,15.17
2023-01-10T04:44:22.697Z,15.33
2023-01-10T04:46:49.345Z,15.39
2023-01-10T04:49:16.413Z,15.15
2023-01-10T04:51:43.064Z,15.33
2023-01-10T04:54:09.753Z,15.04
2023-01-10T04:56:36.442Z,15.20
2023-01-10T04:59:04.526Z,15.16
2023-01-10T05:01:31.270Z,15.15
2023-01-10T05:03:58.090Z,14.97
2023-01-10T05:06:25.047Z,15.08
2023-01-10T05:08:51.728Z,15.21
2023-01-10T05:11:18.436Z,15.08
2023-01-10T05:13:47.141Z,15.06
2023-01-10T05:16:16.428Z,14.54
2023-01-10T05:18:46.041Z,14.76
2023-01-10T05:21:13.691Z,14.71
2023-01-10T05:23:40.894Z,14.62
2023-01-10T05:26:09.044Z,14.57
2023-01-10T05:28:35.714Z,14.56
2023-01-10T05:31:02.792Z,14.55
2023-01-10T05:33:30.825Z,14.61
2023-01-10T05:35:59.327Z,14.44
2023-01-10T05:38:26.027Z,14.74
2023-01-10T05:40:55.463Z,14.69
2023-01-10T05:43:22.272Z,14.76
2023-01-10T05:45:49.082Z,14.56
2023-01-10T05:48:15.778Z,14.68
2023-01-10T05:50:43.908Z,14.71
2023-01-10T05:53:10.834Z,14.51
2023-01-10T05:55:40.457Z,14.43
2023-01-10T05:58:07.144Z,14.31
2023-01-10T06:00:33.831Z,14.25
2023-01-10T06:03:00.602Z,14.10
2023-01-10T06:05:27.275Z,14.24
2023-01-10T06:07:55.297Z,14.08
2023-01-10T06:10:21.940Z,14.08
2023-01-10T06:12:48.636Z,14.03
2023-01-10T06:15:15.719Z,13.95
2023-01-10T06:17:42.387Z,13.54
2023-01-10T06:20:10.461Z,13.56
2023-01-10T06:22:37.121Z,13.41
2023-01-10T06:25:06.181Z,13.54
2023-01-10T06:27:32.936Z,13.75
2023-01-10T06:29:59.587Z,13.52
2023-01-10T06:32:26.273Z,13.63
2023-01-10T06:34:53.103Z,13.75
2023-01-10T06:37:20.327Z,13.84
2023-01-10T06:39:47.115Z,13.45
2023-01-10T06:42:15.210Z,13.18
2023-01-10T06:44:41.875Z,13.41
2023-01-10T06:47:08.533Z,13.69
2023-01-10T06:49:35.152Z,14.05
2023-01-10T06:52:01.755Z,13.61
2023-01-10T06:54:28.469Z,13.54
2023-01-10T06:56:55.199Z,13.53
2023-01-10T06:59:23.245Z,13.74
2023-01-10T07:01:50.308Z,13.75
2023-01-10T07:04:17.033Z,13.52
2023-01-10T07:06:43.714Z,13.63
2023-01-10T07:09:10.396Z,13.78
2023-01-10T07:11:37.153Z,13.38
2023-01-10T07:14:04.055Z,13.31
2023-01-10T07:16:32.179Z,13.13
2023-01-10T07:18:59.748Z,13.55
2023-01-10T07:21:26.695Z,13.31
2023-01-10T07:23:53.401Z,13.74
2023-01-10T07:26:20.211Z,13.96
2023-01-10T07:28:49.194Z,13.55
2023-01-10T07:31:16.333Z,13.00
2023-01-10T07:33:44.506Z,13.83
2023-01-10T07:36:11.242Z,13.63
2023-01-10T07:38:38.716Z,13.41
2023-01-10T07:41:05.807Z,13.60
2023-01-10T07:43:32.975Z,14.06
2023-01-10T07:45:59.907Z,14.29
2023-01-10T07:48:26.646Z,14.27
2023-01-10T07:50:57.787Z,13.81
2023-01-10T07:53:25.264Z,13.86
2023-01-10T07:55:51.919Z,13.51
2023-01-10T07:58:19.322Z,13.96
2023-01-10T08:00:46.549Z,13.83
2023-01-10T08:03:13.541Z,13.31
2023-01-10T08:05:40.950Z,13.48
2023-01-10T08:08:10.800Z,13.51
2023-01-10T08:10:39.044Z,13.59
2023-01-10T08:13:17.774Z,13.74
2023-01-10T08:15:45.387Z,14.26
2023-01-10T08:18:12.095Z,13.72
2023-01-10T08:20:38.727Z,13.20
2023-01-10T08:23:05.420Z,13.51
2023-01-10T08:25:33.429Z,13.92
2023-01-10T08:28:00.106Z,13.41
2023-01-10T08:30:26.801Z,13.44
2023-01-10T08:32:53.533Z,13.21
2023-01-10T08:35:20.207Z,13.51
2023-01-10T08:37:46.870Z,13.55
2023-01-10T08:40:13.723Z,13.75
2023-01-10T08:42:41.740Z,13.80
2023-01-10T08:45:09.438Z,14.11
2023-01-10T08:47:36.079Z,13.88
2023-01-10T08:50:02.817Z,13.72
2023-01-10T08:52:29.445Z,13.79
2023-01-10T08:54:56.088Z,14.05
2023-01-10T08:57:22.742Z,13.69
2023-01-10T08:59:50.783Z,13.85
2023-01-10T09:02:17.512Z,13.95
2023-01-10T09:04:44.213Z,14.37
2023-01-10T09:07:11.190Z,13.87
2023-01-10T09:09:37.858Z,14.26
2023-01-10T09:12:04.903Z,14.48
2023-01-10T09:14:31.629Z,14.51
2023-01-10T09:16:59.712Z,14.64
2023-01-10T09:19:26.354Z,14.12
2023-01-10T09:21:53.015Z,14.21
2023-01-10T09:24:19.624Z,14.47
2023-01-10T09:26:46.277Z,14.68
2023-01-10T09:29:13.026Z,14.59
2023-01-10T09:31:39.782Z,14.61
2023-01-10T09:34:07.846Z,14.89
2023-01-10T09:36:34.557Z,15.22
2023-01-10T09:39:01.235Z,14.55
2023-01-10T09:41:53.740Z,14.69
2023-01-10T09:44:33.607Z,15.24
2023-01-10T09:47:21.144Z,15.20
2023-01-10T09:50:00.127Z,14.84
2023-01-10T09:52:30.399Z,14.70
2023-01-10T09:55:00.026Z,14.97
2023-01-10T09:57:26.989Z,15.65
2023-01-10T09:59:53.877Z,15.18
2023-01-10T10:02:29.339Z,15.11
2023-01-10T10:05:08.502Z,15.35
2023-01-10T10:07:35.640Z,15.34
2023-01-10T10:10:02.430Z,15.29
2023-01-10T10:12:37.882Z,15.41
2023-01-10T10:15:20.155Z,15.30
2023-01-10T10:17:57.317Z,15.52
2023-01-10T10:20:39.600Z,15.36
2023-01-10T10:23:21.150Z,15.26
2023-01-10T10:26:00.997Z,15.79
2023-01-10T10:29:03.889Z,15.45
2023-01-10T10:32:01.222Z,15.52
2023-01-10T10:34:31.287Z,15.60
2023-01-10T10:37:03.524Z,15.59
2023-01-10T10:39:36.772Z,15.16
2023-01-10T10:42:10.766Z,15.13
2023-01-10T10:44:41.793Z,15.85
2023-01-10T10:47:15.082Z,15.91
2023-01-10T10:49:47.095Z,15.88
2023-01-10T10:52:22.791Z,16.35
2023-01-10T10:54:49.775Z,16.64
2023-01-10T10:57:16.808Z,16.28
2023-01-10T10:59:46.496Z,16.26
2023-01-10T11:02:24.246Z,16.44
2023-01-10T11:04:54.515Z,16.42
2023-01-10T11:07:23.380Z,15.84
2023-01-10T11:09:52.588Z,16.07
2023-01-10T11:12:25.865Z,16.63
2023-01-10T11:14:52.608Z,16.44
2023-01-10T11:17:22.273Z,16.25
2023-01-10T11:19:56.442Z,16.79
2023-01-10T11:22:25.426Z,16.75
2023-01-10T11:24:54.690Z,17.21
2023-01-10T11:27:24.205Z,17.16
2023-01-10T11:29:53.059Z,17.10
2023-01-10T11:32:23.435Z,16.99
2023-01-10T11:34:53.601Z,17.12
2023-01-10T11:37:22.714Z,17.47
2023-01-10T11:40:14.884Z,17.53
2023-01-10T11:42:42.316Z,17.66
2023-01-10T11:45:23.575Z,17.07
2023-01-10T11:47:54.805Z,17.03
2023-01-10T11:50:24.634Z,17.74
2023-01-10T11:52:52.050Z,17.61
2023-01-10T11:55:22.985Z,17.63
2023-01-10T11:58:02.879Z,17.87
2023-01-10T12:00:38.227Z,18.06
2023-01-10T12:03:17.100Z,18.03
2023-01-10T12:05:51.593Z,17.96
2023-01-10T12:08:31.340Z,18.14
2023-01-10T12:11:02.826Z,18.04
2023-01-10T12:13:30.668Z,18.28
2023-01-10T12:16:16.685Z,18.14
2023-01-10T12:18:43.372Z,18.32
2023-01-10T12:21:13.380Z,18.29
2023-01-10T12:23:42.180Z,18.31
2023-01-10T12:26:12.419Z,18.47
2023-01-10T12:28:43.019Z,18.59
2023-01-10T12:31:13.843Z,18.64
2023-01-10T12:33:44.679Z,18.54
2023-01-10T12:36:21.534Z,18.80
2023-01-10T12:38:57.573Z,18.90
2023-01-10T12:41:33.876Z,19.04
2023-01-10T12:44:02.953Z,18.85
2023-01-10T12:47:05.292Z,19.07
2023-01-10T12:49:29.138Z,19.22
2023-01-10T12:52:00.977Z,19.17
2023-01-10T12:54:30.302Z,19.21
2023-01-10T12:57:05.102Z,19.07
2023-01-10T12:59:38.106Z,19.12
2023-01-10T13:02:07.172Z,19.39
2023-01-10T13:04:37.804Z,19.37
2023-01-10T13:07:05.222Z,19.51
2023-01-10T13:09:32.994Z,19.23
2023-01-10T13:12:08.257Z,19.34
2023-01-10T13:14:42.357Z,19.68
2023-01-10T13:17:19.995Z,19.32
2023-01-10T13:20:21.962Z,19.61
2023-01-10T13:22:50.315Z,19.81
2023-01-10T13:25:22.818Z,19.85
2023-01-10T13:27:57.551Z,20.13
2023-01-10T13:30:28.474Z,20.42
2023-01-10T13:33:03.040Z,20.28
2023-01-10T13:35:39.777Z,20.43
2023-01-10T13:38:16.679Z,20.59
2023-01-10T13:40:57.194Z,20.66
2023-01-10T13:43:59.302Z,19.98
2023-01-10T13:46:46.964Z,20.49
2023-01-10T13:49:39.615Z,20.07
2023-01-10T13:52:30.775Z,20.37
2023-01-10T13:54:58.871Z,20.40
2023-01-10T13:57:51.937Z,20.32
2023-01-10T14:00:27.032Z,20.13
2023-01-10T14:02:53.749Z,20.45
2023-01-10T14:05:23.316Z,20.87
2023-01-10T14:07:52.296Z,20.89
2023-01-10T14:10:22.688Z,20.83
2023-01-10T14:12:52.523Z,20.76
2023-01-10T14:15:26.388Z,20.73
2023-01-10T14:18:05.630Z,20.97
2023-01-10T14:20:34.920Z,20.88
2023-01-10T14:23:05.607Z,20.72
2023-01-10T14:25:34.561Z,20.83
2023-01-10T14:28:02.300Z,20.97
2023-01-10T14:30:32.884Z,21.16
2023-01-10T14:33:07.009Z,20.91
2023-01-10T14:35:37.906Z,21.11
2023-01-10T14:38:06.944Z,21.32
2023-01-10T14:40:38.992Z,21.30
2023-01-10T14:43:09.480Z,21.06
2023-01-10T14:45:43.609Z,21.04
2023-01-10T14:48:28.527Z,21.05
2023-01-10T14:51:08.354Z,21.23
2023-01-10T14:53:35.315Z,21.28
2023-01-10T14:56:02.072Z,20.81
2023-01-10T14:58:28.831Z,20.99
2023-01-10T15:00:57.585Z,21.19
2023-01-10T15:03:25.923Z,20.90
2023-01-10T15:05:54.578Z,21.16
2023-01-10T15:08:24.181Z,21.02
2023-01-10T15:10:54.718Z,21.27
2023-01-10T15:13:25.029Z,21.14
2023-01-10T15:15:52.534Z,20.79
2023-01-10T15:18:30.156Z,20.91
2023-01-10T15:20:57.919Z,20.45
2023-01-10T15:23:24.551Z,20.71
2023-01-10T15:25:56.612Z,20.76
2023-01-10T15:28:23.386Z,20.97
2023-01-10T15:30:50.671Z,20.87
2023-01-10T15:33:21.759Z,20.55
2023-01-10T15:35:49.990Z,21.18
2023-01-10T15:38:20.694Z,20.90
2023-01-10T15:40:55.163Z,20.90
2023-01-10T15:43:25.200Z,20.98
2023-01-10T15:45:53.349Z,21.14
2023-01-10T15:48:28.747Z,20.49
2023-01-10T15:50:58.455Z,20.78
2023-01-10T15:53:57.098Z,20.63
2023-01-10T15:56:27.998Z,20.87
2023-01-10T15:58:56.630Z,20.88
2023-01-10T16:01:24.124Z,20.96
2023-01-10T16:03:53.506Z,20.91
2023-01-10T16:08:53.148Z,21.14
2023-01-10T16:11:23.376Z,21.26
2023-01-10T16:13:50.145Z,21.11
2023-01-10T16:16:19.739Z,20.90
2023-01-10T16:18:46.492Z,20.93
2023-01-10T16:21:13.869Z,21.05
2023-01-10T16:23:44.119Z,21.07
2023-01-10T16:26:10.862Z,21.08
2023-01-10T16:28:37.529Z,20.98
2023-01-10T16:31:06.768Z,20.85
2023-01-10T16:33:34.002Z,20.58
2023-01-10T16:36:01.154Z,20.00
2023-01-10T16:38:29.185Z,20.63
2023-01-10T16:40:59.952Z,20.23
2023-01-10T16:43:27.119Z,20.14
2023-01-10T16:45:55.238Z,20.64
2023-01-10T16:48:22.414Z,20.48
2023-01-10T16:50:49.215Z,20.32
2023-01-10T16:53:17.696Z,20.34
2023-01-10T16:55:46.162Z,20.67
2023-01-10T16:58:15.490Z,20.38
2023-01-10T17:00:44.877Z,20.28
2023-01-10T17:03:14.849Z,20.39
2023-01-10T17:05:42.008Z,20.38
2023-01-10T17:08:15.614Z,20.73
2023-01-10T17:10:43.216Z,20.64
2023-01-10T17:13:12.182Z,20.68
2023-01-10T17:15:40.260Z,20.92
2023-01-10T17:18:07.027Z,21.05
2023-01-10T17:20:33.704Z,20.87
2023-01-10T17:23:00.328Z,20.53
2023-01-10T17:25:26.971Z,20.65
2023-01-10T17:27:53.592Z,20.76
2023-01-10T17:30:20.383Z,20.75
2023-01-10T17:32:48.427Z,20.48
2023-01-10T17:35:15.081Z,20.62
2023-01-10T17:37:41.830Z,20.76
2023-01-10T17:40:10.385Z,20.97
2023-01-10T17:42:37.025Z,20.75
2023-01-10T17:45:04.310Z,20.43
2023-01-10T17:47:31.026Z,20.64
2023-01-10T17:49:59.074Z,20.97
2023-01-10T17:52:25.747Z,20.53
2023-01-10T17:54:52.429Z,20.49
2023-01-10T17:57:19.157Z,20.67
2023-01-10T17:59:45.779Z,20.71
2023-01-10T18:02:17.313Z,21.03
2023-01-10T18:04:44.579Z,20.76
2023-01-10T18:07:13.165Z,20.91
2023-01-10T18:09:40.204Z,21.11
2023-01-10T18:12:07.142Z,21.11
2023-01-10T18:14:33.885Z,21.17
2023-01-10T18:17:00.593Z,21.00
2023-01-10T18:19:27.463Z,21.06
2023-01-10T18:21:54.103Z,21.10
2023-01-10T18:24:22.164Z,21.10
2023-01-10T18:26:49.098Z,21.02
2023-01-10T18:29:15.717Z,21.01
2023-01-10T18:31:42.436Z,20.85
2023-01-10T18:34:09.449Z,20.40
2023-01-10T18:36:36.165Z,20.88
2023-01-10T18:39:03.088Z,20.86
2023-01-10T18:41:31.388Z,20.40
2023-01-10T18:43:58.027Z,20.90
2023-01-10T18:46:24.779Z,19.90
2023-01-10T18:48:52.267Z,20.37
2023-01-10T18:51:18.928Z,20.53
2023-01-10T18:53:46.024Z,20.27
2023-01-10T18:56:12.697Z,20.39
2023-01-10T18:58:42.088Z,20.22
2023-01-10T19:01:11.278Z,19.88
2023-01-10T19:03:39.018Z,19.40
2023-01-10T19:06:07.881Z,19.58
2023-01-10T19:08:34.773Z,19.58
2023-01-10T19:11:13.334Z,19.32
2023-01-10T19:13:43.176Z,19.39
2023-01-10T19:16:12.094Z,19.80
2023-01-10T19:18:38.867Z,19.21
2023-01-10T19:21:05.749Z,18.84
2023-01-10T19:23:33.001Z,19.13
2023-01-10T19:25:59.852Z,19.31
2023-01-10T19:28:29.553Z,19.45
2023-01-10T19:31:05.386Z,19.89
2023-01-10T19:33:32.394Z,20.06
2023-01-10T19:35:59.066Z,19.51
2023-01-10T19:38:25.787Z,20.14
2023-01-10T19:40:53.100Z,20.44
2023-01-10T19:43:19.849Z,20.53
2023-01-10T19:45:48.201Z,20.38
2023-01-10T19:48:16.396Z,20.20
2023-01-10T19:50:43.058Z,19.36
2023-01-10T19:53:09.771Z,19.39
2023-01-10T19:55:36.431Z,19.69
2023-01-10T19:58:03.096Z,19.46
2023-01-10T20:00:30.081Z,19.15
2023-01-10T20:02:56.865Z,19.06
2023-01-10T20:05:24.922Z,19.17
2023-01-10T20:07:51.964Z,19.29
2023-01-10T20:10:19.015Z,19.57
2023-01-10T20:12:45.756Z,19.77
2023-01-10T20:15:12.563Z,19.78
2023-01-10T20:17:39.235Z,19.78
2023-01-10T20:20:06.548Z,19.70
2023-01-10T20:22:34.576Z,19.93
2023-01-10T20:25:01.331Z,19.97
2023-01-10T20:27:28.855Z,20.04
2023-01-10T20:29:55.549Z,20.07
2023-01-10T20:32:22.318Z,19.95
2023-01-10T20:34:48.971Z,19.96
2023-01-10T20:37:15.639Z,19.87
2023-01-10T20:39:43.694Z,19.67
2023-01-10T20:42:10.332Z,19.54
2023-01-10T20:44:37.034Z,19.41
2023-01-10T20:47:03.725Z,19.48
2023-01-10T20:49:30.412Z,19.09
2023-01-10T20:51:57.064Z,19.35
2023-01-10T20:54:23.724Z,19.38
2023-01-10T20:56:51.712Z,19.24
2023-01-10T20:59:18.357Z,19.31
2023-01-10T21:01:45.116Z,19.03
2023-01-10T21:04:11.806Z,19.16
2023-01-10T21:06:38.473Z,18.61
2023-01-10T21:09:05.846Z,18.97
2023-01-10T21:11:41.063Z,18.86
2023-01-10T21:14:15.716Z,18.96
2023-01-10T21:16:42.368Z,19.10
2023-01-10T21:19:09.002Z,19.19
2023-01-10T21:21:35.608Z,19.25
2023-01-10T21:24:02.294Z,18.82
2023-01-10T21:26:28.931Z,18.95
2023-01-10T21:28:55.571Z,19.11
2023-01-10T21:31:23.596Z,18.80
2023-01-10T21:33:50.303Z,18.22
2023-01-10T21:36:17.563Z,18.66
2023-01-10T21:38:44.259Z,18.34
2023-01-10T21:41:13.030Z,18.51
2023-01-10T21:43:41.013Z,18.55
2023-01-10T21:46:09.097Z,18.63
2023-01-10T21:48:37.105Z,18.22
2023-01-10T21:51:03.920Z,17.90
2023-01-10T21:53:30.605Z,18.10
2023-01-10T21:55:58.087Z,18.01
2023-01-10T21:58:24.820Z,17.65
2023-01-10T22:00:55.171Z,17.72
2023-01-10T22:03:21.912Z,18.08
2023-01-10T22:05:50.028Z,17.88
2023-01-10T22:08:16.723Z,18.25
2023-01-10T22:10:43.372Z,17.87
2023-01-10T22:13:10.050Z,17.82
2023-01-10T22:15:36.981Z,17.91
2023-01-10T22:18:03.939Z,17.87
2023-01-10T22:20:30.970Z,18.34
2023-01-10T22:22:59.169Z,17.85
2023-01-10T22:25:25.826Z,17.95
2023-01-10T22:27:52.610Z,18.26
2023-01-10T22:30:19.484Z,18.14
2023-01-10T22:32:46.191Z,17.88
2023-01-10T22:35:12.958Z,17.98
2023-01-10T22:37:39.711Z,18.05
2023-01-10T22:40:09.385Z,17.78
2023-01-10T22:42:36.122Z,17.78
2023-01-10T22:45:02.926Z,17.83
2023-01-10T22:47:29.569Z,18.07
2023-01-10T22:49:56.262Z,18.18
2023-01-10T22:52:22.931Z,17.72
2023-01-10T22:54:49.694Z,17.55
2023-01-10T22:57:17.782Z,17.69
2023-01-10T22:59:44.419Z,18.09
2023-01-10T23:02:11.098Z,18.09
2023-01-10T23:04:37.785Z,17.74
2023-01-10T23:07:04.471Z,17.64
2023-01-10T23:09:31.201Z,17.97
2023-01-10T23:11:58.012Z,17.90
2023-01-10T23:14:26.266Z,18.03
2023-01-10T23:16:52.988Z,17.76
2023-01-10T23:19:19.693Z,17.64
2023-01-10T23:21:46.439Z,17.38
2023-01-10T23:24:13.148Z,18.05
2023-01-10T23:26:39.869Z,18.04
2023-01-10T23:29:06.525Z,17.99
2023-01-10T23:31:34.565Z,17.87
2023-01-10T23:34:01.299Z,18.48
2023-01-10T23:36:28.018Z,18.07
2023-01-10T23:38:54.688Z,18.02
2023-01-10T23:41:21.482Z,17.75
2023-01-10T23:43:49.054Z,17.40
2023-01-10T23:46:16.249Z,17.33
2023-01-10T23:48:44.431Z,17.25
2023-01-10T23:51:11.192Z,17.33
2023-01-10T23:53:37.877Z,17.37
2023-01-10T23:56:09.540Z,17.35
2023-01-10T23:58:36.561Z,17.45
